createdAt,value
2018-04-14T00:01:57.262Z,9.16
2018-04-14T00:04:26.749Z,9.17
2018-04-14T00:06:56.240Z,9.12
2018-04-14T00:09:25.794Z,9.04
2018-04-14T00:11:55.286Z,8.96
2018-04-14T00:14:24.782Z,9.01
2018-04-14T00:16:54.286Z,8.95
2018-04-14T00:19:23.776Z,9.01
2018-04-14T00:21:53.282Z,8.98
2018-04-14T00:24:22.776Z,9.00
2018-04-14T00:26:52.278Z,8.93
2018-04-14T00:29:21.766Z,8.94
2018-04-14T00:31:51.267Z,9.01
2018-04-14T00:34:21.192Z,8.99
2018-04-14T00:36:50.689Z,9.12
2018-04-14T00:39:20.586Z,8.99
2018-04-14T00:41:50.083Z,8.98
2018-04-14T00:44:19.591Z,8.85
2018-04-14T00:46:49.087Z,8.85
2018-04-14T00:49:18.614Z,8.83
2018-04-14T00:51:48.508Z,8.71
2018-04-14T00:54:17.773Z,8.77
2018-04-14T00:56:47.097Z,8.87
2018-04-14T00:59:16.603Z,8.72
2018-04-14T01:01:46.106Z,8.90
2018-04-14T01:04:15.614Z,8.96
2018-04-14T01:06:45.094Z,8.98
2018-04-14T01:09:14.598Z,8.84
2018-04-14T01:11:44.082Z,8.84
2018-04-14T01:14:13.586Z,8.85
2018-04-14T01:16:42.840Z,8.75
2018-04-14T01:19:12.122Z,8.81
2018-04-14T01:21:41.611Z,8.85
2018-04-14T01:24:11.107Z,8.82
2018-04-14T01:26:40.593Z,8.77
2018-04-14T01:29:10.478Z,8.80
2018-04-14T01:31:39.972Z,8.55
2018-04-14T01:34:09.457Z,8.35
2018-04-14T01:36:38.945Z,8.34
2018-04-14T01:39:56.704Z,8.38
2018-04-14T01:42:25.963Z,8.40
2018-04-14T01:44:55.861Z,8.40
2018-04-14T01:47:25.749Z,8.37
2018-04-14T01:49:55.242Z,8.23
2018-04-14T01:52:24.798Z,8.19
2018-04-14T01:54:54.701Z,8.26
2018-04-14T01:57:24.180Z,8.13
2018-04-14T01:59:53.677Z,8.25
2018-04-14T02:02:23.168Z,8.19
2018-04-14T02:04:52.726Z,8.34
2018-04-14T02:07:22.253Z,8.20
2018-04-14T02:09:52.142Z,7.97
2018-04-14T02:12:21.638Z,7.93
2018-04-14T02:14:51.144Z,7.90
2018-04-14T02:17:20.640Z,8.06
2018-04-14T02:19:50.112Z,8.13
2018-04-14T02:22:19.627Z,8.09
2018-04-14T02:24:49.110Z,8.11
2018-04-14T02:27:18.601Z,8.12
2018-04-14T02:29:48.511Z,7.96
2018-04-14T02:32:18.389Z,8.03
2018-04-14T02:34:47.880Z,7.97
2018-04-14T02:37:17.580Z,7.93
2018-04-14T02:39:47.082Z,7.88
2018-04-14T02:42:16.344Z,7.93
2018-04-14T02:44:46.246Z,7.57
2018-04-14T02:47:16.175Z,7.51
2018-04-14T02:49:46.268Z,7.48
2018-04-14T02:52:15.748Z,7.67
2018-04-14T02:54:45.435Z,7.70
2018-04-14T02:57:14.922Z,7.70
2018-04-14T02:59:44.817Z,7.83
2018-04-14T03:02:14.312Z,7.83
2018-04-14T03:04:43.825Z,7.70
2018-04-14T03:07:13.328Z,7.77
2018-04-14T03:09:42.831Z,7.78
2018-04-14T03:12:12.320Z,7.74
2018-04-14T03:14:41.820Z,7.60
2018-04-14T03:17:11.310Z,7.31
2018-04-14T03:19:40.806Z,7.43
2018-04-14T03:22:10.298Z,7.44
2018-04-14T03:24:39.785Z,7.35
2018-04-14T03:27:09.692Z,7.51
2018-04-14T03:29:39.246Z,7.45
2018-04-14T03:32:08.738Z,7.29
2018-04-14T03:34:38.240Z,7.37
2018-04-14T03:37:07.739Z,7.08
2018-04-14T03:39:37.222Z,6.97
2018-04-14T03:42:07.128Z,6.99
2018-04-14T03:44:36.618Z,7.15
2018-04-14T03:47:06.306Z,7.40
2018-04-14T03:49:35.576Z,7.41
2018-04-14T03:52:05.081Z,7.35
2018-04-14T03:54:34.583Z,7.26
2018-04-14T03:57:04.078Z,7.26
2018-04-14T03:59:33.970Z,7.30
2018-04-14T04:02:03.467Z,7.23
2018-04-14T04:04:32.989Z,7.36
2018-04-14T04:07:02.688Z,7.34
2018-04-14T04:09:32.174Z,7.25
2018-04-14T04:12:01.671Z,7.19
2018-04-14T04:14:31.360Z,7.28
2018-04-14T04:17:00.846Z,7.20
2018-04-14T04:19:47.168Z,7.22
2018-04-14T04:22:33.406Z,7.07
2018-04-14T04:28:13.567Z,7.30
2018-04-14T04:30:43.591Z,7.22
2018-04-14T04:33:12.750Z,7.20
2018-04-14T04:35:42.237Z,7.24
2018-04-14T04:38:11.742Z,7.33
2018-04-14T04:40:41.241Z,7.27
2018-04-14T04:43:11.135Z,7.36
2018-04-14T04:45:40.610Z,7.14
2018-04-14T04:48:10.099Z,7.30
2018-04-14T04:50:39.597Z,7.21
2018-04-14T04:53:09.283Z,7.22
2018-04-14T04:55:39.215Z,7.31
2018-04-14T04:58:08.697Z,7.29
2018-04-14T05:00:38.592Z,7.38
2018-04-14T05:03:08.073Z,7.59
2018-04-14T05:05:37.575Z,7.55
2018-04-14T05:08:07.079Z,7.74
2018-04-14T05:10:36.568Z,7.65
2018-04-14T05:13:06.052Z,7.56
2018-04-14T05:15:36.499Z,7.55
2018-04-14T05:18:06.001Z,7.64
2018-04-14T05:20:35.483Z,7.83
2018-04-14T05:23:05.394Z,8.09
2018-04-14T05:25:35.287Z,7.92
2018-04-14T05:28:04.537Z,7.98
2018-04-14T05:30:34.277Z,8.14
2018-04-14T05:33:03.964Z,8.32
2018-04-14T05:35:33.721Z,8.26
2018-04-14T05:38:03.204Z,8.56
2018-04-14T05:40:33.419Z,8.71
2018-04-14T05:43:02.911Z,8.68
2018-04-14T05:45:32.400Z,8.73
2018-04-14T05:48:01.893Z,8.75
2018-04-14T05:50:31.388Z,8.93
2018-04-14T05:53:01.283Z,9.28
2018-04-14T05:55:30.796Z,10.03
2018-04-14T05:58:00.292Z,10.89
2018-04-14T06:00:29.803Z,11.51
2018-04-14T06:02:59.078Z,12.41
2018-04-14T06:05:28.567Z,13.28
2018-04-14T06:07:58.088Z,14.51
2018-04-14T06:10:27.576Z,15.55
2018-04-14T06:12:57.091Z,16.45
2018-04-14T06:15:26.597Z,16.87
2018-04-14T06:17:56.157Z,16.63
2018-04-14T06:20:26.069Z,16.88
2018-04-14T06:22:55.979Z,16.88
2018-04-14T06:25:25.654Z,17.34
2018-04-14T06:27:55.144Z,17.32
2018-04-14T06:30:36.116Z,17.43
2018-04-14T06:33:05.606Z,16.72
2018-04-14T06:35:35.110Z,16.08
2018-04-14T06:38:04.598Z,16.12
2018-04-14T06:40:34.111Z,16.17
2018-04-14T06:43:03.605Z,16.28
2018-04-14T06:45:33.494Z,16.55
2018-04-14T06:48:02.664Z,16.81
2018-04-14T06:50:32.161Z,17.16
2018-04-14T06:53:01.661Z,17.70
2018-04-14T06:55:31.163Z,18.06
2018-04-14T06:58:00.667Z,18.03
2018-04-14T07:00:30.165Z,18.21
2018-04-14T07:02:59.663Z,18.54
2018-04-14T07:05:29.171Z,18.70
2018-04-14T07:07:58.455Z,18.80
2018-04-14T07:10:28.347Z,18.19
2018-04-14T07:12:57.839Z,18.34
2018-04-14T07:15:27.371Z,17.94
2018-04-14T07:17:57.284Z,18.04
2018-04-14T07:20:27.193Z,18.49
2018-04-14T07:22:57.083Z,19.05
2018-04-14T07:25:26.561Z,17.94
2018-04-14T07:27:56.077Z,18.41
2018-04-14T07:30:25.581Z,18.16
2018-04-14T07:32:55.088Z,17.89
2018-04-14T07:35:24.590Z,18.05
2018-04-14T07:37:54.093Z,17.89
2018-04-14T07:40:23.673Z,17.78
2018-04-14T07:42:53.179Z,18.78
2018-04-14T07:45:22.841Z,18.43
2018-04-14T07:47:52.342Z,18.23
2018-04-14T07:50:21.840Z,17.28
2018-04-14T07:52:51.407Z,17.36
2018-04-14T07:55:20.927Z,17.15
2018-04-14T07:57:50.195Z,17.26
2018-04-14T08:00:20.087Z,17.65
2018-04-14T08:02:49.585Z,17.11
2018-04-14T08:05:19.086Z,16.99
2018-04-14T08:14:36.755Z,15.80
2018-04-14T08:17:06.461Z,15.38
2018-04-14T08:19:35.971Z,14.86
2018-04-14T08:22:05.500Z,14.60
2018-04-14T08:24:34.994Z,14.36
2018-04-14T08:27:04.534Z,14.71
2018-04-14T08:29:34.647Z,15.33
2018-04-14T08:32:04.564Z,14.89
2018-04-14T08:34:34.479Z,14.97
2018-04-14T08:37:04.391Z,14.79
2018-04-14T08:39:34.307Z,14.74
2018-04-14T08:42:04.220Z,14.87
2018-04-14T08:44:34.121Z,14.94
2018-04-14T08:47:03.606Z,14.95
2018-04-14T08:49:33.115Z,14.43
2018-04-14T08:52:02.619Z,14.35
2018-04-14T08:54:32.130Z,14.64
2018-04-14T08:57:01.819Z,14.43
2018-04-14T08:59:31.323Z,14.27
2018-04-14T09:02:00.892Z,14.35
2018-04-14T09:04:30.534Z,14.57
2018-04-14T09:07:00.099Z,14.70
2018-04-14T09:09:29.997Z,14.81
2018-04-14T09:11:59.503Z,14.79
2018-04-14T09:14:29.013Z,14.67
2018-04-14T09:17:55.665Z,14.60
2018-04-14T09:20:25.338Z,14.62
2018-04-14T09:22:54.834Z,14.65
2018-04-14T09:25:24.344Z,14.94
2018-04-14T09:27:53.843Z,14.90
2018-04-14T09:30:23.360Z,15.08
2018-04-14T09:32:52.862Z,15.03
2018-04-14T09:35:22.371Z,15.16
2018-04-14T09:37:51.872Z,15.53
2018-04-14T09:40:21.391Z,15.92
2018-04-14T09:42:50.951Z,15.90
2018-04-14T09:45:20.400Z,15.95
2018-04-14T09:47:49.887Z,15.87
2018-04-14T09:50:19.397Z,16.18
2018-04-14T09:52:48.902Z,16.17
2018-04-14T09:55:18.444Z,16.55
2018-04-14T09:57:47.952Z,16.12
2018-04-14T10:00:22.807Z,16.26
2018-04-14T10:02:52.492Z,16.56
2018-04-14T10:05:22.201Z,16.60
2018-04-14T10:07:51.708Z,16.31
2018-04-14T10:10:21.208Z,16.50
2018-04-14T10:12:50.911Z,16.74
2018-04-14T10:15:20.430Z,17.08
2018-04-14T10:17:49.934Z,17.61
2018-04-14T10:20:19.462Z,16.97
2018-04-14T10:22:49.357Z,16.65
2018-04-14T10:25:18.895Z,16.88
2018-04-14T10:27:48.171Z,17.14
2018-04-14T10:30:17.431Z,17.27
2018-04-14T10:32:46.944Z,17.50
2018-04-14T10:35:16.659Z,17.28
2018-04-14T10:37:46.217Z,17.34
2018-04-14T10:40:15.878Z,17.29
2018-04-14T10:42:45.377Z,17.16
2018-04-14T10:45:14.874Z,17.35
2018-04-14T10:47:44.373Z,17.20
2018-04-14T10:50:13.959Z,17.36
2018-04-14T10:52:43.474Z,17.28
2018-04-14T10:55:13.012Z,17.46
2018-04-14T10:57:42.714Z,17.38
2018-04-14T11:00:12.218Z,17.96
2018-04-14T11:02:41.768Z,18.01
2018-04-14T11:05:11.682Z,18.12
2018-04-14T11:07:41.589Z,18.11
2018-04-14T11:10:11.079Z,18.14
2018-04-14T11:12:40.577Z,18.10
2018-04-14T11:15:10.076Z,18.11
2018-04-14T11:17:39.579Z,17.95
2018-04-14T11:20:09.101Z,18.37
2018-04-14T11:22:38.609Z,18.45
2018-04-14T11:25:08.288Z,18.20
2018-04-14T11:27:37.823Z,18.24
2018-04-14T11:30:07.365Z,18.04
2018-04-14T11:32:36.860Z,18.10
2018-04-14T11:35:06.776Z,17.96
2018-04-14T11:37:36.716Z,17.76
2018-04-14T11:40:06.232Z,18.20
2018-04-14T11:42:35.737Z,18.61
2018-04-14T11:45:05.238Z,18.48
2018-04-14T11:47:34.752Z,18.51
2018-04-14T11:50:04.024Z,18.26
2018-04-14T11:52:33.538Z,18.13
2018-04-14T11:55:03.050Z,18.33
2018-04-14T11:57:32.548Z,18.36
2018-04-14T12:00:02.058Z,18.38
2018-04-14T12:02:31.250Z,18.71
2018-04-14T12:05:00.760Z,18.63
2018-04-14T12:07:30.034Z,18.88
2018-04-14T12:09:59.964Z,18.47
2018-04-14T12:12:28.992Z,18.91
2018-04-14T12:14:58.500Z,18.84
2018-04-14T12:17:28.010Z,19.01
2018-04-14T12:19:57.506Z,18.75
2018-04-14T12:22:27.006Z,18.71
2018-04-14T12:24:56.511Z,18.65
2018-04-14T12:27:26.018Z,19.14
2018-04-14T12:29:55.534Z,19.11
2018-04-14T12:32:25.046Z,19.18
2018-04-14T12:34:54.560Z,19.17
2018-04-14T12:37:24.062Z,19.32
2018-04-14T12:39:53.224Z,19.25
2018-04-14T12:42:22.737Z,19.11
2018-04-14T12:44:52.252Z,19.41
2018-04-14T12:47:21.763Z,19.30
2018-04-14T12:49:51.484Z,19.29
2018-04-14T12:52:20.978Z,19.10
2018-04-14T12:54:50.485Z,19.39
2018-04-14T12:57:19.082Z,19.63
2018-04-14T12:59:48.577Z,19.65
2018-04-14T13:02:17.879Z,19.22
2018-04-14T13:04:47.405Z,19.35
2018-04-14T13:07:17.154Z,19.33
2018-04-14T13:09:47.066Z,19.04
2018-04-14T13:12:16.989Z,19.05
2018-04-14T13:14:46.904Z,19.23
2018-04-14T13:17:16.830Z,19.47
2018-04-14T13:19:46.410Z,19.46
2018-04-14T13:22:15.918Z,19.49
2018-04-14T13:24:45.839Z,19.35
2018-04-14T13:27:15.543Z,18.98
2018-04-14T13:29:45.457Z,18.73
2018-04-14T13:32:15.367Z,18.75
2018-04-14T13:34:44.878Z,19.16
2018-04-14T13:37:14.781Z,19.29
2018-04-14T13:39:44.292Z,19.70
2018-04-14T13:42:14.235Z,19.38
2018-04-14T13:44:44.369Z,19.24
2018-04-14T13:47:13.927Z,19.55
2018-04-14T13:49:43.576Z,19.48
2018-04-14T13:52:13.094Z,19.35
2018-04-14T13:54:42.596Z,19.71
2018-04-14T13:57:12.128Z,19.80
2018-04-14T13:59:42.046Z,19.73
2018-04-14T14:02:11.564Z,19.42
2018-04-14T14:04:41.067Z,19.51
2018-04-14T14:07:10.586Z,19.66
2018-04-14T14:09:40.126Z,19.79
2018-04-14T14:12:09.642Z,19.85
2018-04-14T14:14:38.906Z,19.38
2018-04-14T14:17:08.410Z,19.34
2018-04-14T14:19:37.922Z,19.38
2018-04-14T14:22:07.439Z,19.17
2018-04-14T14:24:37.358Z,19.15
2018-04-14T14:27:07.272Z,19.13
2018-04-14T14:29:37.181Z,19.26
2018-04-14T14:32:07.095Z,19.32
2018-04-14T14:34:37.028Z,19.47
2018-04-14T14:37:06.018Z,19.56
2018-04-14T14:39:35.928Z,19.70
2018-04-14T14:42:05.858Z,19.60
2018-04-14T14:44:35.940Z,19.72
2018-04-14T14:47:05.451Z,19.70
2018-04-14T14:49:34.966Z,19.61
2018-04-14T14:52:04.875Z,19.71
2018-04-14T14:54:34.381Z,19.54
2018-04-14T14:57:04.295Z,19.45
2018-04-14T14:59:33.814Z,19.53
2018-04-14T15:02:03.713Z,19.39
2018-04-14T15:04:33.238Z,19.46
2018-04-14T15:07:02.947Z,19.49
2018-04-14T15:09:32.863Z,19.52
2018-04-14T15:12:02.764Z,19.52
2018-04-14T15:14:32.671Z,19.50
2018-04-14T15:17:02.206Z,19.57
2018-04-14T15:19:31.723Z,19.50
2018-04-14T15:22:01.233Z,19.65
2018-04-14T15:24:30.750Z,19.47
2018-04-14T15:27:00.264Z,19.52
2018-04-14T15:29:29.769Z,19.53
2018-04-14T15:31:59.290Z,19.51
2018-04-14T15:34:28.834Z,19.38
2018-04-14T15:36:58.939Z,19.41
2018-04-14T15:39:28.473Z,19.39
2018-04-14T15:41:57.985Z,19.40
2018-04-14T15:44:27.500Z,19.37
2018-04-14T15:46:57.053Z,19.37
2018-04-14T15:49:26.742Z,19.42
2018-04-14T15:51:56.264Z,19.37
2018-04-14T15:54:25.792Z,19.37
2018-04-14T15:56:55.716Z,19.48
2018-04-14T15:59:25.686Z,19.44
2018-04-14T16:01:55.740Z,19.34
2018-04-14T16:04:25.639Z,19.32
2018-04-14T16:06:55.340Z,19.29
2018-04-14T16:09:24.897Z,19.31
2018-04-14T16:11:54.588Z,19.24
2018-04-14T16:14:24.502Z,19.12
2018-04-14T16:16:54.431Z,19.16
2018-04-14T16:19:23.703Z,19.07
2018-04-14T16:21:52.728Z,19.02
2018-04-14T16:24:22.007Z,19.02
2018-04-14T16:26:51.923Z,19.05
2018-04-14T16:29:21.474Z,19.04
2018-04-14T16:31:50.982Z,18.98
2018-04-14T16:34:20.492Z,18.98
2018-04-14T16:36:50.030Z,19.10
2018-04-14T16:39:19.534Z,19.07
2018-04-14T16:41:49.069Z,18.99
2018-04-14T16:44:18.992Z,18.96
2018-04-14T16:46:48.896Z,18.88
2018-04-14T16:49:18.843Z,18.83
2018-04-14T16:51:48.528Z,18.91
2018-04-14T16:54:18.432Z,18.88
2018-04-14T16:56:47.934Z,18.83
2018-04-14T16:59:17.446Z,18.80
2018-04-14T17:01:47.378Z,18.70
2018-04-14T17:04:17.284Z,18.68
2018-04-14T17:06:47.199Z,18.56
2018-04-14T17:09:17.071Z,18.51
2018-04-14T17:11:46.579Z,18.45
2018-04-14T17:14:16.101Z,18.41
2018-04-14T17:16:45.599Z,18.35
2018-04-14T17:19:15.121Z,18.34
2018-04-14T17:21:44.626Z,18.28
2018-04-14T17:24:14.125Z,18.20
2018-04-14T17:26:43.620Z,18.13
2018-04-14T17:29:13.135Z,18.14
2018-04-14T17:31:43.384Z,18.04
2018-04-14T17:34:12.928Z,18.01
2018-04-14T17:36:42.452Z,17.96
2018-04-14T17:39:11.943Z,17.92
2018-04-14T17:41:41.125Z,17.87
2018-04-14T17:44:10.631Z,17.80
2018-04-14T17:46:40.135Z,17.71
2018-04-14T17:49:09.811Z,17.63
2018-04-14T17:51:39.317Z,17.57
2018-04-14T17:54:09.223Z,17.53
2018-04-14T17:56:38.747Z,17.52
2018-04-14T17:59:08.657Z,17.41
2018-04-14T18:01:38.207Z,17.42
2018-04-14T18:04:07.714Z,17.31
2018-04-14T18:06:37.243Z,17.31
2018-04-14T18:09:05.849Z,17.28
2018-04-14T18:11:35.019Z,17.29
2018-04-14T18:14:04.531Z,17.22
2018-04-14T18:16:34.057Z,17.13
2018-04-14T18:19:03.559Z,16.95
2018-04-14T18:21:33.067Z,16.79
2018-04-14T18:24:02.559Z,16.75
2018-04-14T18:26:32.072Z,16.71
2018-04-14T18:29:01.608Z,16.77
2018-04-14T18:31:31.513Z,16.75
2018-04-14T18:34:01.409Z,16.64
2018-04-14T18:36:30.908Z,16.67
2018-04-14T18:39:00.403Z,16.65
2018-04-14T18:41:29.908Z,16.66
2018-04-14T18:43:59.412Z,16.62
2018-04-14T18:46:28.691Z,16.65
2018-04-14T18:48:58.244Z,16.61
2018-04-14T18:51:27.750Z,16.56
2018-04-14T18:53:57.238Z,16.45
2018-04-14T18:56:26.752Z,16.35
2018-04-14T18:58:56.246Z,16.27
2018-04-14T19:01:25.744Z,16.19
2018-04-14T19:03:55.265Z,16.13
2018-04-14T19:06:24.775Z,16.12
2018-04-14T19:08:54.286Z,16.03
2018-04-14T19:11:23.800Z,15.96
2018-04-14T19:13:53.316Z,15.93
2018-04-14T19:16:23.212Z,15.87
2018-04-14T19:18:52.723Z,15.82
2018-04-14T19:21:22.222Z,15.79
2018-04-14T19:23:51.913Z,15.82
2018-04-14T19:26:21.621Z,15.79
2018-04-14T19:28:51.176Z,15.74
2018-04-14T19:31:21.057Z,15.68
2018-04-14T19:33:50.749Z,15.60
2018-04-14T19:36:20.269Z,15.54
2018-04-14T19:38:49.840Z,15.50
2018-04-14T19:41:19.373Z,15.38
2018-04-14T19:43:48.884Z,15.33
2018-04-14T19:46:18.373Z,15.22
2018-04-14T19:48:47.878Z,15.18
2018-04-14T19:51:17.451Z,15.12
2018-04-14T19:53:46.977Z,15.06
2018-04-14T19:56:16.510Z,15.00
2018-04-14T19:58:46.013Z,14.99
2018-04-14T20:01:15.552Z,14.95
2018-04-14T20:03:45.474Z,14.93
2018-04-14T20:06:15.196Z,14.93
2018-04-14T20:08:45.093Z,14.91
2018-04-14T20:11:15.032Z,14.75
2018-04-14T20:13:44.917Z,14.70
2018-04-14T20:16:14.417Z,14.75
2018-04-14T20:18:43.943Z,14.82
2018-04-14T20:21:13.834Z,14.88
2018-04-14T20:23:43.341Z,14.89
2018-04-14T20:26:12.841Z,14.89
2018-04-14T20:28:42.354Z,14.86
2018-04-14T20:31:11.908Z,14.83
2018-04-14T20:33:41.601Z,14.74
2018-04-14T20:36:11.510Z,14.73
2018-04-14T20:38:41.404Z,14.65
2018-04-14T20:41:10.911Z,14.59
2018-04-14T20:43:40.605Z,14.50
2018-04-14T20:46:10.110Z,14.42
2018-04-14T20:48:39.476Z,14.36
2018-04-14T20:51:08.984Z,14.30
2018-04-14T20:53:38.474Z,14.22
2018-04-14T20:56:07.745Z,14.17
2018-04-14T20:58:37.646Z,14.23
2018-04-14T21:01:07.163Z,14.15
2018-04-14T21:03:36.655Z,14.07
2018-04-14T21:06:06.147Z,14.02
2018-04-14T21:08:35.656Z,13.89
2018-04-14T21:11:05.163Z,13.94
2018-04-14T21:13:34.677Z,13.84
2018-04-14T21:16:04.190Z,13.74
2018-04-14T21:18:33.693Z,13.62
2018-04-14T21:21:03.190Z,13.61
2018-04-14T21:23:32.700Z,13.58
2018-04-14T21:26:02.219Z,13.55
2018-04-14T21:28:31.725Z,13.66
2018-04-14T21:31:01.629Z,13.64
2018-04-14T21:33:31.128Z,13.59
2018-04-14T21:36:00.639Z,13.48
2018-04-14T21:38:30.161Z,13.39
2018-04-14T21:40:59.664Z,13.30
2018-04-14T21:43:29.177Z,13.26
2018-04-14T21:45:59.057Z,13.17
2018-04-14T21:48:28.562Z,13.08
2018-04-14T21:50:57.859Z,13.09
2018-04-14T21:53:27.360Z,13.00
2018-04-14T21:55:56.853Z,13.03
2018-04-14T21:58:26.359Z,12.98
2018-04-14T22:00:55.863Z,12.99
2018-04-14T22:03:25.375Z,13.03
2018-04-14T22:05:54.906Z,12.97
2018-04-14T22:08:24.409Z,12.94
2018-04-14T22:10:53.913Z,12.90
2018-04-14T22:13:23.446Z,12.88
2018-04-14T22:15:53.366Z,12.87
2018-04-14T22:18:23.280Z,12.94
2018-04-14T22:20:52.954Z,13.00
2018-04-14T22:23:22.640Z,12.92
2018-04-14T22:25:52.151Z,13.06
2018-04-14T22:28:21.654Z,13.01
2018-04-14T22:30:51.388Z,12.96
2018-04-14T22:33:20.923Z,12.82
2018-04-14T22:35:50.438Z,12.64
2018-04-14T22:38:20.380Z,12.50
2018-04-14T22:40:49.884Z,12.41
2018-04-14T22:43:19.050Z,12.51
2018-04-14T22:45:48.978Z,12.41
2018-04-14T22:48:18.866Z,12.40
2018-04-14T22:50:48.380Z,12.26
2018-04-14T22:53:18.280Z,12.21
2018-04-14T22:55:47.780Z,12.24
2018-04-14T22:58:17.282Z,12.29
2018-04-14T23:00:46.790Z,12.30
2018-04-14T23:03:16.326Z,12.38
2018-04-14T23:05:46.230Z,12.38
2018-04-14T23:08:15.728Z,12.45
2018-04-14T23:10:45.249Z,12.39
2018-04-14T23:13:15.160Z,12.36
2018-04-14T23:15:45.050Z,12.42
2018-04-14T23:18:14.550Z,12.46
2018-04-14T23:20:44.062Z,12.36
2018-04-14T23:23:13.600Z,12.32
2018-04-14T23:25:43.267Z,12.25
2018-04-14T23:28:12.793Z,12.25
2018-04-14T23:30:42.300Z,12.20
2018-04-14T23:33:11.464Z,12.19
2018-04-14T23:35:40.982Z,12.10
2018-04-14T23:38:10.484Z,12.12
2018-04-14T23:40:39.973Z,12.03
2018-04-14T23:43:09.509Z,12.03
2018-04-14T23:45:39.010Z,11.99
2018-04-14T23:48:08.547Z,11.99
2018-04-14T23:50:38.442Z,11.95
2018-04-14T23:53:07.941Z,11.91
2018-04-14T23:55:37.473Z,11.90
2018-04-14T23:58:07.365Z,11.91
